Time,TemperatureF,DewpointF,PressureIn,WindDirection,WindDirectionDegrees,WindSpeedMPH,WindSpeedGustMPH,Humidity,HourlyPrecipIn,Conditions,Clouds,dailyrainin,SoftwareType,DateUTC
2013-08-24 00:01:00,61.0,56.8,29.94,ESE,116,1.0,2.0,86,0.00,,,0.00,WeatherCatV1.15B25,2013-08-24 07:01:00,
2013-08-24 00:06:00,61.1,56.9,29.94,ESE,120,1.0,2.0,86,0.00,,,0.00,WeatherCatV1.15B25,2013-08-24 07:06:00,
2013-08-24 00:11:00,61.1,56.9,29.94,East,94,1.0,2.0,86,0.00,,,0.00,WeatherCatV1.15B25,2013-08-24 07:11:00,
2013-08-24 00:16:00,61.1,56.9,29.94,SE,138,0.0,1.0,86,0.00,,,0.00,WeatherCatV1.15B25,2013-08-24 07:16:00,
2013-08-24 00:21:00,61.1,56.9,29.94,ESE,110,1.0,2.0,86,0.00,,,0.00,WeatherCatV1.15B25,2013-08-24 07:21:00,
2013-08-24 00:26:00,61.2,57.0,29.94,SSE,166,1.0,2.0,86,0.00,,,0.00,WeatherCatV1.15B25,2013-08-24 07:26:00,
2013-08-24 00:31:00,61.4,57.2,29.95,ESE,119,3.0,3.0,86,0.00,,,0.00,WeatherCatV1.15B25,2013-08-24 07:31:00,
2013-08-24 00:36:00,61.4,57.2,29.94,SSE,152,2.0,2.0,86,0.00,,,0.00,WeatherCatV1.15B25,2013-08-24 07:36:00,
2013-08-24 00:41:00,61.5,56.9,29.94,SSW,201,0.0,1.0,85,0.00,,,0.00,WeatherCatV1.15B25,2013-08-24 07:41:00,
2013-08-24 00:46:00,61.5,56.9,29.95,SE,135,1.0,1.0,85,0.00,,,0.00,WeatherCatV1.15B25,2013-08-24 07:46:00,
2013-08-24 00:51:00,61.4,57.2,29.95,SE,136,0.0,1.0,86,0.00,,,0.00,WeatherCatV1.15B25,2013-08-24 07:51:00,
2013-08-24 00:56:00,61.4,57.2,29.95,ESE,121,4.0,4.0,86,0.00,,,0.00,WeatherCatV1.15B25,2013-08-24 07:56:00,
2013-08-24 01:01:00,61.4,57.2,29.94,SSE,166,3.0,4.0,86,0.00,,,0.00,WeatherCatV1.15B25,2013-08-24 08:01:00,
2013-08-24 01:06:00,61.5,57.3,29.94,SE,139,1.0,4.0,86,0.00,,,0.00,WeatherCatV1.15B25,2013-08-24 08:06:00,
2013-08-24 01:11:00,61.5,56.9,29.94,SSE,165,0.0,1.0,85,0.00,,,0.00,WeatherCatV1.15B25,2013-08-24 08:11:00,
2013-08-24 01:16:00,61.6,57.0,29.94,SE,139,0.0,2.0,85,0.00,,,0.00,WeatherCatV1.15B25,2013-08-24 08:16:00,
2013-08-24 01:21:00,61.6,57.0,29.94,East,100,1.0,1.0,85,0.00,,,0.00,WeatherCatV1.15B25,2013-08-24 08:21:00,
2013-08-24 01:26:00,61.6,57.0,29.94,ESE,104,0.0,1.0,85,0.00,,,0.00,WeatherCatV1.15B25,2013-08-24 08:26:00,
2013-08-24 01:31:00,61.6,57.0,29.94,ESE,104,0.0,1.0,85,0.00,,,0.00,WeatherCatV1.15B25,2013-08-24 08:31:00,
2013-08-24 01:36:00,61.6,57.0,29.94,ESE,105,0.0,1.0,85,0.00,,,0.00,WeatherCatV1.15B25,2013-08-24 08:36:00,
2013-08-24 01:41:00,61.7,57.1,29.94,ESE,114,0.0,0.0,85,0.00,,,0.00,WeatherCatV1.15B25,2013-08-24 08:41:00,
2013-08-24 01:46:00,61.7,57.1,29.94,South,174,2.0,3.0,85,0.00,,,0.00,WeatherCatV1.15B25,2013-08-24 08:46:00,
2013-08-24 01:51:00,61.7,57.1,29.95,South,169,1.0,2.0,85,0.00,,,0.00,WeatherCatV1.15B25,2013-08-24 08:51:00,
2013-08-24 01:56:00,61.7,57.1,29.95,South,177,0.0,1.0,85,0.00,,,0.00,WeatherCatV1.15B25,2013-08-24 08:56:00,
2013-08-24 02:01:00,61.8,57.2,29.95,SSW,201,1.0,1.0,85,0.00,,,0.00,WeatherCatV1.15B25,2013-08-24 09:01:00,
2013-08-24 02:06:00,61.8,57.2,29.95,WSW,238,1.0,1.0,85,0.00,,,0.00,WeatherCatV1.15B25,2013-08-24 09:06:00,
2013-08-24 02:11:00,61.8,57.2,29.95,SSW,206,2.0,2.0,85,0.00,,,0.00,WeatherCatV1.15B25,2013-08-24 09:11:00,
2013-08-24 02:16:00,61.8,57.2,29.95,South,190,3.0,4.0,85,0.00,,,0.00,WeatherCatV1.15B25,2013-08-24 09:16:00,
2013-08-24 02:21:00,61.8,57.2,29.95,South,181,3.0,4.0,85,0.00,,,0.00,WeatherCatV1.15B25,2013-08-24 09:21:00,
2013-08-24 02:26:00,61.8,56.9,29.95,WSW,258,5.0,6.0,84,0.00,,,0.00,WeatherCatV1.15B25,2013-08-24 09:26:00,
2013-08-24 02:31:00,61.8,56.9,29.95,WSW,239,7.0,7.0,84,0.00,,,0.00,WeatherCatV1.15B25,2013-08-24 09:31:00,
2013-08-24 02:36:00,61.8,56.9,29.94,SW,218,1.0,4.0,84,0.00,,,0.00,WeatherCatV1.15B25,2013-08-24 09:36:00,
2013-08-24 02:41:00,61.8,56.9,29.95,SW,217,5.0,5.0,84,0.00,,,0.00,WeatherCatV1.15B25,2013-08-24 09:41:00,
2013-08-24 02:46:00,61.7,56.8,29.95,SW,214,2.0,4.0,84,0.00,,,0.00,WeatherCatV1.15B25,2013-08-24 09:46:00,
2013-08-24 02:51:00,61.7,56.8,29.95,WSW,250,3.0,5.0,84,0.00,,,0.00,WeatherCatV1.15B25,2013-08-24 09:51:00,
2013-08-24 02:56:00,61.7,56.8,29.94,SW,216,2.0,5.0,84,0.00,,,0.00,WeatherCatV1.15B25,2013-08-24 09:56:00,
2013-08-24 03:01:00,61.9,57.0,29.95,SW,221,2.0,3.0,84,0.00,,,0.00,WeatherCatV1.15B25,2013-08-24 10:01:00,
2013-08-24 03:06:00,61.8,56.9,29.95,SSW,194,3.0,4.0,84,0.00,,,0.00,WeatherCatV1.15B25,2013-08-24 10:06:00,
2013-08-24 03:11:00,61.6,56.7,29.95,SSW,208,0.0,2.0,84,0.00,,,0.00,WeatherCatV1.15B25,2013-08-24 10:11:00,
2013-08-24 03:16:00,61.6,56.7,29.94,SSW,208,1.0,1.0,84,0.00,,,0.00,WeatherCatV1.15B25,2013-08-24 10:16:00,
2013-08-24 03:21:00,61.5,56.6,29.95,SSW,198,0.0,1.0,84,0.00,,,0.00,WeatherCatV1.15B25,2013-08-24 10:21:00,
2013-08-24 03:26:00,61.4,56.5,29.95,SSE,166,1.0,2.0,84,0.00,,,0.00,WeatherCatV1.15B25,2013-08-24 10:26:00,
2013-08-24 03:31:00,61.4,56.8,29.94,SSE,147,0.0,1.0,85,0.00,,,0.00,WeatherCatV1.15B25,2013-08-24 10:31:00,
2013-08-24 03:36:00,61.4,56.8,29.95,SSW,197,1.0,1.0,85,0.00,,,0.00,WeatherCatV1.15B25,2013-08-24 10:36:00,
2013-08-24 03:41:00,61.4,56.8,29.94,SW,224,0.0,1.0,85,0.00,,,0.00,WeatherCatV1.15B25,2013-08-24 10:41:00,
2013-08-24 03:46:00,61.3,56.7,29.94,SSW,211,1.0,2.0,85,0.00,,,0.00,WeatherCatV1.15B25,2013-08-24 10:46:00,
2013-08-24 03:51:00,61.3,56.7,29.94,SSW,194,1.0,2.0,85,0.00,,,0.00,WeatherCatV1.15B25,2013-08-24 10:51:00,
2013-08-24 03:56:00,61.3,56.7,29.94,SSW,194,1.0,1.0,85,0.00,,,0.00,WeatherCatV1.15B25,2013-08-24 10:56:00,
2013-08-24 04:01:00,61.3,56.7,29.94,SW,236,1.0,1.0,85,0.00,,,0.00,WeatherCatV1.15B25,2013-08-24 11:01:00,
2013-08-24 04:06:00,61.3,56.4,29.94,SSW,204,2.0,3.0,84,0.00,,,0.00,WeatherCatV1.15B25,2013-08-24 11:06:00,
2013-08-24 04:11:00,61.3,56.7,29.94,SSE,153,2.0,3.0,85,0.00,,,0.00,WeatherCatV1.15B25,2013-08-24 11:11:00,
2013-08-24 04:16:00,61.3,56.7,29.94,SW,217,1.0,2.0,85,0.00,,,0.00,WeatherCatV1.15B25,2013-08-24 11:16:00,
2013-08-24 04:21:00,61.4,56.8,29.94,South,180,0.0,1.0,85,0.00,,,0.00,WeatherCatV1.15B25,2013-08-24 11:21:00,
2013-08-24 04:26:00,61.6,56.7,29.94,WSW,242,1.0,1.0,84,0.00,,,0.00,WeatherCatV1.15B25,2013-08-24 11:26:00,
2013-08-24 04:31:00,61.4,56.8,29.94,SW,222,2.0,3.0,85,0.00,,,0.00,WeatherCatV1.15B25,2013-08-24 11:31:00,
2013-08-24 04:36:00,61.3,56.7,29.94,SSE,163,1.0,2.0,85,0.00,,,0.00,WeatherCatV1.15B25,2013-08-24 11:36:00,
2013-08-24 04:41:00,61.2,56.7,29.95,SSW,207,3.0,4.0,85,0.00,,,0.00,WeatherCatV1.15B25,2013-08-24 11:41:00,
2013-08-24 04:46:00,61.1,56.9,29.94,SSW,211,2.0,3.0,86,0.00,,,0.00,WeatherCatV1.15B25,2013-08-24 11:46:00,
2013-08-24 04:51:00,61.1,56.9,29.94,SSW,196,3.0,4.0,86,0.00,,,0.00,WeatherCatV1.15B25,2013-08-24 11:51:00,
2013-08-24 04:56:00,61.0,56.8,29.94,WSW,238,4.0,4.0,86,0.00,,,0.00,WeatherCatV1.15B25,2013-08-24 11:56:00,
2013-08-24 05:01:00,60.8,56.9,29.94,SSW,203,2.0,6.0,87,0.00,,,0.00,WeatherCatV1.15B25,2013-08-24 12:01:00,
2013-08-24 05:06:00,60.5,56.9,29.94,SW,229,3.0,4.0,88,0.00,,,0.00,WeatherCatV1.15B25,2013-08-24 12:06:00,
2013-08-24 05:11:00,60.2,57.3,29.94,SW,225,4.0,4.0,90,0.00,,,0.00,WeatherCatV1.15B25,2013-08-24 12:11:00,
2013-08-24 05:16:00,59.9,57.3,29.94,SSE,162,3.0,4.0,91,0.00,,,0.00,WeatherCatV1.15B25,2013-08-24 12:16:00,
2013-08-24 05:21:00,59.7,57.4,29.94,SW,235,2.0,2.0,92,0.00,,,0.00,WeatherCatV1.15B25,2013-08-24 12:21:00,
2013-08-24 05:26:00,59.5,57.2,29.94,SW,215,2.0,3.0,92,0.00,,,0.00,WeatherCatV1.15B25,2013-08-24 12:26:00,
2013-08-24 05:31:00,59.3,57.3,29.94,SSW,204,3.0,3.0,93,0.00,,,0.00,WeatherCatV1.15B25,2013-08-24 12:31:00,
2013-08-24 05:36:00,59.1,57.1,29.94,South,183,2.0,2.0,93,0.00,,,0.00,WeatherCatV1.15B25,2013-08-24 12:36:00,
2013-08-24 05:41:00,58.9,56.9,29.93,SSE,167,1.0,1.0,93,0.00,,,0.00,WeatherCatV1.15B25,2013-08-24 12:41:00,
2013-08-24 05:46:00,58.8,57.1,29.94,ESE,121,0.0,1.0,94,0.00,,,0.00,WeatherCatV1.15B25,2013-08-24 12:46:00,
2013-08-24 05:51:00,58.7,57.0,29.94,ESE,120,0.0,0.0,94,0.00,,,0.00,WeatherCatV1.15B25,2013-08-24 12:51:00,
2013-08-24 05:56:00,58.7,57.0,29.94,ESE,113,1.0,1.0,94,0.00,,,0.00,WeatherCatV1.15B25,2013-08-24 12:56:00,
2013-08-24 06:01:00,58.6,56.9,29.94,East,98,0.0,0.0,94,0.00,,,0.00,WeatherCatV1.15B25,2013-08-24 13:01:00,
2013-08-24 06:06:00,58.5,56.8,29.94,East,93,0.0,1.0,94,0.00,,,0.00,WeatherCatV1.15B25,2013-08-24 13:06:00,
2013-08-24 06:11:00,58.5,56.8,29.94,East,95,0.0,1.0,94,0.00,,,0.00,WeatherCatV1.15B25,2013-08-24 13:11:00,
2013-08-24 06:16:00,58.4,57.0,29.94,ESE,112,0.0,0.0,95,0.00,,,0.00,WeatherCatV1.15B25,2013-08-24 13:16:00,
2013-08-24 06:21:00,58.4,57.0,29.94,ESE,121,0.0,0.0,95,0.00,,,0.00,WeatherCatV1.15B25,2013-08-24 13:21:00,
2013-08-24 06:26:00,58.4,57.0,29.94,ESE,121,1.0,1.0,95,0.00,,,0.00,WeatherCatV1.15B25,2013-08-24 13:26:00,
2013-08-24 06:31:00,58.4,57.0,29.94,ESE,117,1.0,1.0,95,0.00,,,0.01,WeatherCatV1.15B25,2013-08-24 13:31:00,
2013-08-24 06:36:00,58.4,57.0,29.94,East,93,0.0,2.0,95,0.00,,,0.01,WeatherCatV1.15B25,2013-08-24 13:36:00,
2013-08-24 06:41:00,57.9,56.2,29.94,ESE,111,1.0,2.0,94,0.00,,,0.01,WeatherCatV1.15B25,2013-08-24 13:41:00,
2013-08-24 06:46:00,57.9,56.2,29.94,ESE,111,1.0,1.0,94,0.00,,,0.01,WeatherCatV1.15B25,2013-08-24 13:46:00,
2013-08-24 06:51:00,57.9,56.2,29.94,ESE,111,1.0,1.0,94,0.00,,,0.01,WeatherCatV1.15B25,2013-08-24 13:51:00,
2013-08-24 06:56:00,-999.0,-99.9,29.94,North,-999,-999.0,0.0,-999,0.00,,,0.01,WeatherCatV1.15B25,2013-08-24 13:56:00,
2013-08-24 07:01:00,-999.0,-99.9,29.94,North,-999,-999.0,0.0,-999,0.00,,,0.01,WeatherCatV1.15B25,2013-08-24 14:01:00,
2013-08-24 07:06:00,-999.0,-99.9,29.94,North,-999,-999.0,0.0,-999,0.00,,,0.01,WeatherCatV1.15B25,2013-08-24 14:06:00,
2013-08-24 07:11:00,-999.0,-99.9,29.94,North,-999,-999.0,0.0,-999,0.00,,,0.01,WeatherCatV1.15B25,2013-08-24 14:11:00,
2013-08-24 07:16:00,-999.0,-99.9,29.95,North,-999,-999.0,0.0,-999,0.00,,,0.01,WeatherCatV1.15B25,2013-08-24 14:16:00,
2013-08-24 07:21:00,-999.0,-99.9,29.95,North,-999,-999.0,0.0,-999,0.00,,,0.01,WeatherCatV1.15B25,2013-08-24 14:21:00,
2013-08-24 07:26:00,-999.0,-99.9,29.95,North,-999,-999.0,0.0,-999,0.00,,,0.01,WeatherCatV1.15B25,2013-08-24 14:26:00,
2013-08-24 07:31:00,-999.0,-99.9,29.95,North,-999,-999.0,0.0,-999,0.00,,,0.01,WeatherCatV1.15B25,2013-08-24 14:31:00,
2013-08-24 07:36:00,-999.0,-99.9,29.95,North,-999,-999.0,0.0,-999,0.00,,,0.01,WeatherCatV1.15B25,2013-08-24 14:36:00,
2013-08-24 07:41:00,58.9,57.5,29.95,SE,136,0.0,1.0,95,0.00,,,0.01,WeatherCatV1.15B25,2013-08-24 14:41:00,
2013-08-24 07:46:00,59.1,57.7,29.95,ESE,115,0.0,0.0,95,0.00,,,0.01,WeatherCatV1.15B25,2013-08-24 14:46:00,
2013-08-24 07:51:00,59.2,57.8,29.95,SE,134,0.0,3.0,95,0.00,,,0.01,WeatherCatV1.15B25,2013-08-24 14:51:00,
2013-08-24 07:56:00,59.3,57.9,29.95,SE,140,0.0,1.0,95,0.00,,,0.01,WeatherCatV1.15B25,2013-08-24 14:56:00,
2013-08-24 08:01:00,59.3,57.9,29.95,ESE,111,0.0,2.0,95,0.00,,,0.01,WeatherCatV1.15B25,2013-08-24 15:01:00,
2013-08-24 08:06:00,59.5,58.1,29.95,SSE,156,1.0,1.0,95,0.00,,,0.01,WeatherCatV1.15B25,2013-08-24 15:06:00,
2013-08-24 08:11:00,59.8,58.4,29.95,SSE,155,0.0,0.0,95,0.00,,,0.01,WeatherCatV1.15B25,2013-08-24 15:11:00,
2013-08-24 08:16:00,60.1,58.4,29.95,SE,145,1.0,1.0,94,0.00,,,0.01,WeatherCatV1.15B25,2013-08-24 15:16:00,
2013-08-24 08:21:00,60.1,58.4,29.95,WSW,243,1.0,2.0,94,0.00,,,0.01,WeatherCatV1.15B25,2013-08-24 15:21:00,
2013-08-24 08:26:00,60.1,58.1,29.95,WSW,249,1.0,2.0,93,0.00,,,0.01,WeatherCatV1.15B25,2013-08-24 15:26:00,
2013-08-24 08:31:00,60.2,58.2,29.95,SE,134,2.0,2.0,93,0.00,,,0.01,WeatherCatV1.15B25,2013-08-24 15:31:00,
2013-08-24 08:36:00,60.4,58.4,29.95,SW,215,0.0,3.0,93,0.00,,,0.01,WeatherCatV1.15B25,2013-08-24 15:36:00,
2013-08-24 08:41:00,60.5,58.2,29.95,SSW,198,1.0,2.0,92,0.00,,,0.01,WeatherCatV1.15B25,2013-08-24 15:41:00,
2013-08-24 08:46:00,60.7,58.4,29.95,SE,131,0.0,4.0,92,0.00,,,0.01,WeatherCatV1.15B25,2013-08-24 15:46:00,
2013-08-24 08:51:00,60.7,58.1,29.95,SE,136,1.0,4.0,91,0.00,,,0.01,WeatherCatV1.15B25,2013-08-24 15:51:00,
2013-08-24 08:56:00,60.9,58.3,29.95,SE,134,1.0,3.0,91,0.00,,,0.01,WeatherCatV1.15B25,2013-08-24 15:56:00,
2013-08-24 09:01:00,61.3,58.6,29.95,SE,136,3.0,3.0,91,0.00,,,0.01,WeatherCatV1.15B25,2013-08-24 16:01:00,
2013-08-24 09:06:00,61.5,58.2,29.95,SSE,150,2.0,5.0,89,0.00,,,0.01,WeatherCatV1.15B25,2013-08-24 16:06:00,
2013-08-24 09:11:00,61.6,58.3,29.95,SE,134,4.0,5.0,89,0.00,,,0.01,WeatherCatV1.15B25,2013-08-24 16:11:00,
2013-08-24 09:16:00,61.7,58.4,29.95,SE,140,3.0,5.0,89,0.00,,,0.01,WeatherCatV1.15B25,2013-08-24 16:16:00,
2013-08-24 09:21:00,61.6,58.3,29.95,SE,139,2.0,6.0,89,0.00,,,0.01,WeatherCatV1.15B25,2013-08-24 16:21:00,
2013-08-24 09:26:00,62.0,58.7,29.95,SE,137,1.0,3.0,89,0.00,,,0.01,WeatherCatV1.15B25,2013-08-24 16:26:00,
2013-08-24 09:32:00,62.1,58.5,29.95,SSE,150,5.0,5.0,88,0.00,,,0.01,WeatherCatV1.15B25,2013-08-24 16:32:00,
2013-08-24 09:37:00,62.0,58.4,29.95,SE,142,3.0,4.0,88,0.00,,,0.01,WeatherCatV1.15B25,2013-08-24 16:37:00,
2013-08-24 09:42:00,62.3,59.0,29.95,ESE,102,2.0,2.0,89,0.00,,,0.01,WeatherCatV1.15B25,2013-08-24 16:42:00,
2013-08-24 09:47:00,62.3,58.4,29.95,South,184,2.0,6.0,87,0.00,,,0.01,WeatherCatV1.15B25,2013-08-24 16:47:00,
2013-08-24 09:52:00,62.3,57.7,29.95,SSW,193,3.0,8.0,85,0.00,,,0.01,WeatherCatV1.15B25,2013-08-24 16:52:00,
2013-08-24 09:57:00,62.2,58.0,29.95,SE,143,0.0,3.0,86,0.00,,,0.01,WeatherCatV1.15B25,2013-08-24 16:57:00,
2013-08-24 10:02:00,62.3,57.7,29.95,West,266,5.0,6.0,85,0.00,,,0.01,WeatherCatV1.15B25,2013-08-24 17:02:00,
2013-08-24 10:07:00,62.0,57.8,29.95,SE,136,1.0,3.0,86,0.00,,,0.01,WeatherCatV1.15B25,2013-08-24 17:07:00,
2013-08-24 10:12:00,62.3,58.4,29.95,SSE,156,4.0,5.0,87,0.00,,,0.01,WeatherCatV1.15B25,2013-08-24 17:12:00,
2013-08-24 10:17:00,62.5,58.2,29.95,SE,143,2.0,4.0,86,0.00,,,0.01,WeatherCatV1.15B25,2013-08-24 17:17:00,
2013-08-24 10:22:00,62.7,58.1,29.96,SSE,165,4.0,7.0,85,0.00,,,0.01,WeatherCatV1.15B25,2013-08-24 17:22:00,
2013-08-24 10:27:00,62.8,58.2,29.96,SSE,165,2.0,5.0,85,0.00,,,0.01,WeatherCatV1.15B25,2013-08-24 17:27:00,
2013-08-24 10:32:00,62.9,58.3,29.96,SSE,162,1.0,4.0,85,0.00,,,0.01,WeatherCatV1.15B25,2013-08-24 17:32:00,
2013-08-24 10:37:00,63.4,58.5,29.96,SE,133,4.0,6.0,84,0.00,,,0.01,WeatherCatV1.15B25,2013-08-24 17:37:00,
2013-08-24 10:42:00,63.6,58.3,29.96,SSE,152,6.0,7.0,83,0.00,,,0.01,WeatherCatV1.15B25,2013-08-24 17:42:00,
2013-08-24 10:48:00,63.6,58.0,29.96,SSE,152,2.0,6.0,82,0.00,,,0.01,WeatherCatV1.15B25,2013-08-24 17:48:00,
2013-08-24 10:53:00,63.8,58.2,29.96,South,179,1.0,2.0,82,0.00,,,0.01,WeatherCatV1.15B25,2013-08-24 17:53:00,
2013-08-24 10:58:00,64.3,58.7,29.96,SSW,193,3.0,7.0,82,0.00,,,0.01,WeatherCatV1.15B25,2013-08-24 17:58:00,
2013-08-24 11:03:00,64.1,58.1,29.96,SSE,149,3.0,8.0,81,0.00,,,0.01,WeatherCatV1.15B25,2013-08-24 18:03:00,
2013-08-24 11:08:00,64.1,58.1,29.96,SE,143,3.0,8.0,81,0.00,,,0.01,WeatherCatV1.15B25,2013-08-24 18:08:00,
2013-08-24 11:13:00,64.2,58.2,29.96,WSW,249,5.0,8.0,81,0.00,,,0.01,WeatherCatV1.15B25,2013-08-24 18:13:00,
2013-08-24 11:18:00,64.0,58.0,29.95,East,99,2.0,4.0,81,0.00,,,0.01,WeatherCatV1.15B25,2013-08-24 18:18:00,
2013-08-24 11:23:00,64.1,57.1,29.95,SE,132,2.0,6.0,78,0.00,,,0.01,WeatherCatV1.15B25,2013-08-24 18:23:00,
2013-08-24 11:28:00,64.3,57.6,29.95,ESE,105,2.0,2.0,79,0.00,,,0.01,WeatherCatV1.15B25,2013-08-24 18:28:00,
2013-08-24 11:33:00,64.9,57.5,29.95,WSW,239,3.0,4.0,77,0.00,,,0.01,WeatherCatV1.15B25,2013-08-24 18:33:00,
2013-08-24 11:38:00,64.7,56.2,29.96,SW,236,4.0,7.0,74,0.00,,,0.01,WeatherCatV1.15B25,2013-08-24 18:38:00,
2013-08-24 11:43:00,65.0,56.9,29.96,SSW,204,6.0,6.0,75,0.00,,,0.01,WeatherCatV1.15B25,2013-08-24 18:43:00,
2013-08-24 11:48:00,65.1,57.3,29.96,SW,236,2.0,6.0,76,0.00,,,0.01,WeatherCatV1.15B25,2013-08-24 18:48:00,
2013-08-24 11:53:00,65.4,57.6,29.95,West,278,2.0,3.0,76,0.00,,,0.01,WeatherCatV1.15B25,2013-08-24 18:53:00,
2013-08-24 11:58:00,65.4,57.3,29.96,West,261,0.0,4.0,75,0.00,,,0.01,WeatherCatV1.15B25,2013-08-24 18:58:00,
2013-08-24 12:03:00,65.9,57.7,29.95,WSW,245,2.0,3.0,75,0.00,,,0.01,WeatherCatV1.15B25,2013-08-24 19:03:00,
2013-08-24 12:09:00,66.7,58.9,29.95,SW,228,3.0,3.0,76,0.00,,,0.01,WeatherCatV1.15B25,2013-08-24 19:09:00,
2013-08-24 12:14:00,66.8,57.9,29.95,West,278,3.0,4.0,73,0.00,,,0.01,WeatherCatV1.15B25,2013-08-24 19:14:00,
2013-08-24 12:19:00,66.3,57.4,29.95,NW,325,0.0,2.0,73,0.00,,,0.01,WeatherCatV1.15B25,2013-08-24 19:19:00,
2013-08-24 12:24:00,66.8,57.9,29.95,WNW,300,1.0,5.0,73,0.00,,,0.01,WeatherCatV1.15B25,2013-08-24 19:24:00,
2013-08-24 12:29:00,66.8,57.9,29.95,WNW,290,0.0,3.0,73,0.00,,,0.01,WeatherCatV1.15B25,2013-08-24 19:29:00,
2013-08-24 12:34:00,67.5,58.5,29.94,SW,218,1.0,3.0,73,0.00,,,0.01,WeatherCatV1.15B25,2013-08-24 19:34:00,
2013-08-24 12:39:00,68.0,58.6,29.94,SW,234,1.0,2.0,72,0.00,,,0.01,WeatherCatV1.15B25,2013-08-24 19:39:00,
2013-08-24 12:44:00,67.7,57.9,29.95,SSW,208,1.0,1.0,71,0.00,,,0.01,WeatherCatV1.15B25,2013-08-24 19:44:00,
2013-08-24 12:49:00,68.5,58.3,29.95,NE,52,3.0,3.0,70,0.00,,,0.01,WeatherCatV1.15B25,2013-08-24 19:49:00,
2013-08-24 12:54:00,68.7,58.1,29.95,NW,313,0.0,1.0,69,0.00,,,0.01,WeatherCatV1.15B25,2013-08-24 19:54:00,
2013-08-24 12:59:00,69.4,58.4,29.94,East,98,1.0,1.0,68,0.00,,,0.01,WeatherCatV1.15B25,2013-08-24 19:59:00,
2013-08-24 13:04:00,69.7,58.2,29.94,SSE,159,1.0,4.0,67,0.00,,,0.01,WeatherCatV1.15B25,2013-08-24 20:04:00,
2013-08-24 13:09:00,69.4,57.5,29.94,WNW,284,0.0,1.0,66,0.00,,,0.01,WeatherCatV1.15B25,2013-08-24 20:09:00,
2013-08-24 13:14:00,69.5,58.0,29.94,WNW,283,0.0,1.0,67,0.00,,,0.01,WeatherCatV1.15B25,2013-08-24 20:14:00,
2013-08-24 13:19:00,69.9,58.0,29.94,SSW,199,1.0,3.0,66,0.00,,,0.01,WeatherCatV1.15B25,2013-08-24 20:19:00,
2013-08-24 13:24:00,69.2,57.3,29.94,WSW,249,3.0,6.0,66,0.00,,,0.01,WeatherCatV1.15B25,2013-08-24 20:24:00,
2013-08-24 13:29:00,68.9,57.5,29.94,SSW,212,3.0,4.0,67,0.00,,,0.01,WeatherCatV1.15B25,2013-08-24 20:29:00,
2013-08-24 13:34:00,69.5,57.6,29.94,North,7,1.0,1.0,66,0.00,,,0.01,WeatherCatV1.15B25,2013-08-24 20:34:00,
2013-08-24 13:40:00,70.1,57.3,29.94,SE,146,2.0,4.0,64,0.00,,,0.01,WeatherCatV1.15B25,2013-08-24 20:40:00,
2013-08-24 13:45:00,70.9,57.2,29.94,SSW,197,6.0,7.0,62,0.00,,,0.01,WeatherCatV1.15B25,2013-08-24 20:45:00,
2013-08-24 13:50:00,70.2,57.0,29.94,SE,136,0.0,4.0,63,0.00,,,0.01,WeatherCatV1.15B25,2013-08-24 20:50:00,
2013-08-24 13:55:00,71.1,57.0,29.94,West,273,7.0,7.0,61,0.00,,,0.01,WeatherCatV1.15B25,2013-08-24 20:55:00,
2013-08-24 14:00:00,70.3,55.3,29.94,SW,218,3.0,5.0,59,0.00,,,0.01,WeatherCatV1.15B25,2013-08-24 21:00:00,
2013-08-24 14:05:00,69.8,56.2,29.94,SSW,206,3.0,7.0,62,0.00,,,0.01,WeatherCatV1.15B25,2013-08-24 21:05:00,
2013-08-24 14:10:00,69.6,56.4,29.94,WNW,285,0.0,2.0,63,0.00,,,0.01,WeatherCatV1.15B25,2013-08-24 21:10:00,
2013-08-24 14:15:00,70.6,56.9,29.94,WSW,242,0.0,3.0,62,0.00,,,0.01,WeatherCatV1.15B25,2013-08-24 21:15:00,
2013-08-24 14:20:00,72.1,57.0,29.94,SE,139,3.0,4.0,59,0.00,,,0.01,WeatherCatV1.15B25,2013-08-24 21:20:00,
2013-08-24 14:25:00,71.3,57.1,29.93,SW,229,3.0,3.0,61,0.00,,,0.01,WeatherCatV1.15B25,2013-08-24 21:25:00,
2013-08-24 14:30:00,71.5,56.4,29.93,ESE,115,1.0,2.0,59,0.00,,,0.01,WeatherCatV1.15B25,2013-08-24 21:30:00,
2013-08-24 14:35:00,71.7,56.1,29.93,ENE,72,2.0,5.0,58,0.00,,,0.01,WeatherCatV1.15B25,2013-08-24 21:35:00,
2013-08-24 14:40:00,72.7,56.1,29.93,SE,131,3.0,6.0,56,0.00,,,0.01,WeatherCatV1.15B25,2013-08-24 21:40:00,
2013-08-24 14:45:00,73.6,56.9,29.93,SE,145,2.0,2.0,56,0.00,,,0.01,WeatherCatV1.15B25,2013-08-24 21:45:00,
2013-08-24 14:50:00,73.7,55.0,29.93,SW,215,6.0,6.0,52,0.00,,,0.01,WeatherCatV1.15B25,2013-08-24 21:50:00,
2013-08-24 14:55:00,74.1,54.8,29.93,West,270,3.0,7.0,51,0.00,,,0.01,WeatherCatV1.15B25,2013-08-24 21:55:00,
2013-08-24 15:00:00,73.7,54.4,29.93,SE,145,0.0,6.0,51,0.00,,,0.01,WeatherCatV1.15B25,2013-08-24 22:00:00,
2013-08-24 15:05:00,74.2,53.8,29.93,WNW,302,5.0,7.0,49,0.00,,,0.01,WeatherCatV1.15B25,2013-08-24 22:05:00,
2013-08-24 15:10:00,74.2,53.8,29.92,WNW,297,6.0,10.0,49,0.00,,,0.01,WeatherCatV1.15B25,2013-08-24 22:10:00,
2013-08-24 15:15:00,73.6,53.8,29.92,West,267,6.0,6.0,50,0.00,,,0.01,WeatherCatV1.15B25,2013-08-24 22:15:00,
2013-08-24 15:21:00,73.9,53.0,29.92,WSW,238,6.0,8.0,48,0.00,,,0.01,WeatherCatV1.15B25,2013-08-24 22:21:00,
2013-08-24 15:26:00,73.8,52.3,29.92,South,186,1.0,5.0,47,0.00,,,0.01,WeatherCatV1.15B25,2013-08-24 22:26:00,
2013-08-24 15:31:00,74.1,50.8,29.92,WSW,252,6.0,11.0,44,0.00,,,0.01,WeatherCatV1.15B25,2013-08-24 22:31:00,
2013-08-24 15:36:00,73.5,50.2,29.92,SW,228,5.0,8.0,44,0.00,,,0.01,WeatherCatV1.15B25,2013-08-24 22:36:00,
2013-08-24 15:41:00,73.8,51.7,29.92,WSW,246,0.0,2.0,46,0.00,,,0.01,WeatherCatV1.15B25,2013-08-24 22:41:00,
2013-08-24 15:46:00,73.9,51.8,29.92,SW,236,2.0,5.0,46,0.00,,,0.01,WeatherCatV1.15B25,2013-08-24 22:46:00,
2013-08-24 15:51:00,73.0,50.4,29.92,West,261,2.0,2.0,45,0.00,,,0.01,WeatherCatV1.15B25,2013-08-24 22:51:00,
2013-08-24 15:56:00,72.5,51.1,29.92,North,350,0.0,1.0,47,0.00,,,0.01,WeatherCatV1.15B25,2013-08-24 22:56:00,
2013-08-24 16:01:00,72.3,50.3,29.92,West,270,3.0,4.0,46,0.00,,,0.01,WeatherCatV1.15B25,2013-08-24 23:01:00,
2013-08-24 16:06:00,72.2,51.4,29.92,NE,41,1.0,1.0,48,0.00,,,0.01,WeatherCatV1.15B25,2013-08-24 23:06:00,
2013-08-24 16:11:00,72.8,51.4,29.92,WSW,255,1.0,2.0,47,0.00,,,0.01,WeatherCatV1.15B25,2013-08-24 23:11:00,
2013-08-24 16:16:00,72.3,50.9,29.92,SSW,204,8.0,8.0,47,0.00,,,0.01,WeatherCatV1.15B25,2013-08-24 23:16:00,
2013-08-24 16:21:00,71.9,50.6,29.92,SSW,200,5.0,6.0,47,0.00,,,0.01,WeatherCatV1.15B25,2013-08-24 23:21:00,
2013-08-24 16:26:00,71.4,50.7,29.92,SSW,211,5.0,6.0,48,0.00,,,0.01,WeatherCatV1.15B25,2013-08-24 23:26:00,
2013-08-24 16:31:00,71.1,50.4,29.92,South,170,5.0,5.0,48,0.00,,,0.01,WeatherCatV1.15B25,2013-08-24 23:31:00,
2013-08-24 16:36:00,71.3,50.6,29.92,WSW,239,1.0,4.0,48,0.00,,,0.01,WeatherCatV1.15B25,2013-08-24 23:36:00,
2013-08-24 16:41:00,71.6,51.4,29.92,South,184,2.0,4.0,49,0.00,,,0.01,WeatherCatV1.15B25,2013-08-24 23:41:00,
2013-08-24 16:46:00,71.6,50.3,29.92,SSW,212,4.0,4.0,47,0.00,,,0.01,WeatherCatV1.15B25,2013-08-24 23:46:00,
2013-08-24 16:51:00,71.2,49.9,29.92,SSW,207,4.0,6.0,47,0.00,,,0.01,WeatherCatV1.15B25,2013-08-24 23:51:00,
2013-08-24 16:56:00,71.7,49.8,29.92,SSW,209,2.0,5.0,46,0.00,,,0.01,WeatherCatV1.15B25,2013-08-24 23:56:00,
2013-08-24 17:01:00,71.8,50.5,29.92,SW,219,6.0,6.0,47,0.00,,,0.01,WeatherCatV1.15B25,2013-08-25 00:01:00,
2013-08-24 17:06:00,71.6,50.3,29.92,South,186,5.0,6.0,47,0.00,,,0.01,WeatherCatV1.15B25,2013-08-25 00:06:00,
2013-08-24 17:11:00,71.4,50.1,29.91,SSW,193,5.0,6.0,47,0.00,,,0.01,WeatherCatV1.15B25,2013-08-25 00:11:00,
2013-08-24 17:16:00,71.5,50.2,29.91,SSW,198,2.0,3.0,47,0.00,,,0.01,WeatherCatV1.15B25,2013-08-25 00:16:00,
2013-08-24 17:21:00,72.3,50.9,29.91,SW,214,2.0,2.0,47,0.00,,,0.01,WeatherCatV1.15B25,2013-08-25 00:21:00,
2013-08-24 17:26:00,72.4,49.8,29.91,ESE,122,3.0,7.0,45,0.00,,,0.01,WeatherCatV1.15B25,2013-08-25 00:26:00,
2013-08-24 17:31:00,72.6,50.0,29.91,South,179,4.0,5.0,45,0.00,,,0.01,WeatherCatV1.15B25,2013-08-25 00:31:00,
2013-08-24 17:36:00,72.4,49.8,29.91,WSW,240,2.0,5.0,45,0.00,,,0.01,WeatherCatV1.15B25,2013-08-25 00:36:00,
2013-08-24 17:41:00,72.0,49.5,29.91,SE,142,5.0,6.0,45,0.00,,,0.01,WeatherCatV1.15B25,2013-08-25 00:41:00,
2013-08-24 17:47:00,71.8,49.3,29.91,SSW,205,3.0,4.0,45,0.00,,,0.01,WeatherCatV1.15B25,2013-08-25 00:47:00,
2013-08-24 17:52:00,72.0,49.5,29.91,SW,232,4.0,4.0,45,0.00,,,0.01,WeatherCatV1.15B25,2013-08-25 00:52:00,
2013-08-24 17:57:00,71.9,49.4,29.91,SSE,155,4.0,6.0,45,0.00,,,0.01,WeatherCatV1.15B25,2013-08-25 00:57:00,
2013-08-24 18:02:00,71.9,49.4,29.91,SE,138,4.0,4.0,45,0.00,,,0.01,WeatherCatV1.15B25,2013-08-25 01:02:00,
2013-08-24 18:07:00,71.8,49.3,29.91,SE,133,4.0,5.0,45,0.00,,,0.01,WeatherCatV1.15B25,2013-08-25 01:07:00,
2013-08-24 18:12:00,71.9,50.6,29.91,SE,142,3.0,5.0,47,0.00,,,0.01,WeatherCatV1.15B25,2013-08-25 01:12:00,
2013-08-24 18:17:00,72.3,50.3,29.91,SE,140,3.0,5.0,46,0.00,,,0.01,WeatherCatV1.15B25,2013-08-25 01:17:00,
2013-08-24 18:22:00,72.2,50.8,29.91,SSW,194,1.0,2.0,47,0.00,,,0.01,WeatherCatV1.15B25,2013-08-25 01:22:00,
2013-08-24 18:27:00,72.2,50.8,29.90,South,174,4.0,6.0,47,0.00,,,0.01,WeatherCatV1.15B25,2013-08-25 01:27:00,
2013-08-24 18:32:00,72.2,50.8,29.90,SE,133,2.0,4.0,47,0.00,,,0.01,WeatherCatV1.15B25,2013-08-25 01:32:00,
2013-08-24 18:38:00,72.6,51.2,29.90,SSE,148,2.0,4.0,47,0.00,,,0.01,WeatherCatV1.15B25,2013-08-25 01:38:00,
2013-08-24 18:43:00,72.7,51.3,29.90,South,191,3.0,3.0,47,0.00,,,0.01,WeatherCatV1.15B25,2013-08-25 01:43:00,
2013-08-24 18:48:00,72.5,51.1,29.90,SW,228,5.0,8.0,47,0.00,,,0.01,WeatherCatV1.15B25,2013-08-25 01:48:00,
2013-08-24 18:53:00,72.1,51.3,29.90,SW,226,2.0,2.0,48,0.00,,,0.01,WeatherCatV1.15B25,2013-08-25 01:53:00,
2013-08-24 18:58:00,71.7,50.9,29.90,SW,221,5.0,5.0,48,0.00,,,0.01,WeatherCatV1.15B25,2013-08-25 01:58:00,
2013-08-24 19:03:00,71.4,51.8,29.90,WSW,249,2.0,5.0,50,0.00,,,0.01,WeatherCatV1.15B25,2013-08-25 02:03:00,
2013-08-24 19:08:00,71.2,51.6,29.90,SW,225,0.0,0.0,50,0.00,,,0.01,WeatherCatV1.15B25,2013-08-25 02:08:00,
2013-08-24 19:13:00,71.1,51.5,29.90,SW,219,1.0,2.0,50,0.00,,,0.01,WeatherCatV1.15B25,2013-08-25 02:13:00,
2013-08-24 19:18:00,71.2,51.6,29.91,SW,236,2.0,2.0,50,0.00,,,0.01,WeatherCatV1.15B25,2013-08-25 02:18:00,
2013-08-24 19:23:00,72.0,51.8,29.91,West,273,2.0,3.0,49,0.00,,,0.01,WeatherCatV1.15B25,2013-08-25 02:23:00,
2013-08-24 19:28:00,72.0,51.2,29.90,WNW,284,0.0,1.0,48,0.00,,,0.01,WeatherCatV1.15B25,2013-08-25 02:28:00,
2013-08-24 19:33:00,71.9,51.7,29.91,SW,225,2.0,3.0,49,0.00,,,0.01,WeatherCatV1.15B25,2013-08-25 02:33:00,
2013-08-24 19:38:00,71.3,51.1,29.91,WNW,295,1.0,2.0,49,0.00,,,0.01,WeatherCatV1.15B25,2013-08-25 02:38:00,
2013-08-24 19:43:00,70.6,51.0,29.91,WNW,295,2.0,2.0,50,0.00,,,0.01,WeatherCatV1.15B25,2013-08-25 02:43:00,
2013-08-24 19:48:00,70.2,51.2,29.91,West,278,0.0,0.0,51,0.00,,,0.01,WeatherCatV1.15B25,2013-08-25 02:48:00,
2013-08-24 19:53:00,69.8,51.4,29.91,West,277,0.0,0.0,52,0.00,,,0.01,WeatherCatV1.15B25,2013-08-25 02:53:00,
2013-08-24 19:58:00,69.6,52.2,29.91,West,277,0.0,0.0,54,0.00,,,0.01,WeatherCatV1.15B25,2013-08-25 02:58:00,
2013-08-24 20:03:00,69.4,52.5,29.91,West,277,0.0,1.0,55,0.00,,,0.01,WeatherCatV1.15B25,2013-08-25 03:03:00,
2013-08-24 20:08:00,68.8,51.5,29.91,West,277,0.0,0.0,54,0.00,,,0.01,WeatherCatV1.15B25,2013-08-25 03:08:00,
2013-08-24 20:13:00,68.3,51.5,29.91,West,277,0.0,0.0,55,0.00,,,0.01,WeatherCatV1.15B25,2013-08-25 03:13:00,
2013-08-24 20:19:00,67.9,51.6,29.92,West,276,0.0,0.0,56,0.00,,,0.01,WeatherCatV1.15B25,2013-08-25 03:19:00,
2013-08-24 20:24:00,67.8,52.0,29.92,West,277,0.0,0.0,57,0.00,,,0.01,WeatherCatV1.15B25,2013-08-25 03:24:00,
2013-08-24 20:29:00,67.4,52.1,29.92,West,276,1.0,1.0,58,0.00,,,0.01,WeatherCatV1.15B25,2013-08-25 03:29:00,
2013-08-24 20:34:00,66.9,52.1,29.92,West,277,1.0,1.0,59,0.00,,,0.01,WeatherCatV1.15B25,2013-08-25 03:34:00,
2013-08-24 20:39:00,66.9,53.9,29.92,NW,310,2.0,5.0,63,0.00,,,0.01,WeatherCatV1.15B25,2013-08-25 03:39:00,
2013-08-24 20:44:00,66.8,53.8,29.92,NNW,343,1.0,2.0,63,0.00,,,0.01,WeatherCatV1.15B25,2013-08-25 03:44:00,
2013-08-24 20:49:00,66.6,54.0,29.92,North,351,1.0,2.0,64,0.00,,,0.01,WeatherCatV1.15B25,2013-08-25 03:49:00,
2013-08-24 20:54:00,66.3,54.6,29.92,NW,325,1.0,2.0,66,0.00,,,0.01,WeatherCatV1.15B25,2013-08-25 03:54:00,
2013-08-24 20:59:00,66.0,54.7,29.92,NW,315,0.0,2.0,67,0.00,,,0.01,WeatherCatV1.15B25,2013-08-25 03:59:00,
2013-08-24 21:01:00,65.9,54.6,29.92,NW,315,0.0,0.0,67,0.00,,,0.01,WeatherCatV1.15B25,2013-08-25 04:01:00,
2013-08-24 21:02:00,65.8,54.9,29.93,NW,315,0.0,0.0,68,0.00,,,0.01,WeatherCatV1.15B25,2013-08-25 04:02:00,
2013-08-24 21:07:00,65.4,55.4,29.93,West,274,1.0,1.0,70,0.00,,,0.01,WeatherCatV1.15B25,2013-08-25 04:07:00,
2013-08-24 21:12:00,65.1,55.5,29.93,WNW,295,1.0,1.0,71,0.00,,,0.01,WeatherCatV1.15B25,2013-08-25 04:12:00,
2013-08-24 21:17:00,64.8,55.6,29.93,NW,316,1.0,1.0,72,0.00,,,0.01,WeatherCatV1.15B25,2013-08-25 04:17:00,
2013-08-24 21:22:00,64.5,55.6,29.93,NNW,344,2.0,2.0,73,0.00,,,0.01,WeatherCatV1.15B25,2013-08-25 04:22:00,
2013-08-24 21:27:00,64.2,55.7,29.93,NNW,337,1.0,4.0,74,0.00,,,0.01,WeatherCatV1.15B25,2013-08-25 04:27:00,
2013-08-24 21:33:00,64.0,55.5,29.93,NNW,335,2.0,2.0,74,0.00,,,0.01,WeatherCatV1.15B25,2013-08-25 04:33:00,
2013-08-24 21:38:00,63.8,55.7,29.93,WNW,297,3.0,3.0,75,0.00,,,0.01,WeatherCatV1.15B25,2013-08-25 04:38:00,
2013-08-24 21:43:00,63.6,55.5,29.93,WNW,291,1.0,2.0,75,0.00,,,0.01,WeatherCatV1.15B25,2013-08-25 04:43:00,
2013-08-24 21:48:00,63.3,55.6,29.93,WNW,302,1.0,2.0,76,0.00,,,0.01,WeatherCatV1.15B25,2013-08-25 04:48:00,
2013-08-24 21:53:00,63.0,55.7,29.94,WNW,300,1.0,1.0,77,0.00,,,0.01,WeatherCatV1.15B25,2013-08-25 04:53:00,
2013-08-24 21:58:00,62.8,55.5,29.94,NNW,338,2.0,2.0,77,0.00,,,0.01,WeatherCatV1.15B25,2013-08-25 04:58:00,
2013-08-24 22:03:00,62.7,55.4,29.94,NNW,341,0.0,1.0,77,0.00,,,0.01,WeatherCatV1.15B25,2013-08-25 05:03:00,
2013-08-24 22:08:00,62.2,54.9,29.94,NNW,342,0.0,0.0,77,0.00,,,0.01,WeatherCatV1.15B25,2013-08-25 05:08:00,
2013-08-24 22:13:00,61.7,55.1,29.94,NNW,340,0.0,0.0,79,0.00,,,0.01,WeatherCatV1.15B25,2013-08-25 05:13:00,
2013-08-24 22:18:00,61.5,55.3,29.94,NNW,340,0.0,0.0,80,0.00,,,0.01,WeatherCatV1.15B25,2013-08-25 05:18:00,
2013-08-24 22:23:00,61.3,55.1,29.94,NW,323,0.0,0.0,80,0.00,,,0.01,WeatherCatV1.15B25,2013-08-25 05:23:00,
2013-08-24 22:28:00,61.4,55.2,29.95,NNW,345,1.0,2.0,80,0.00,,,0.01,WeatherCatV1.15B25,2013-08-25 05:28:00,
2013-08-24 22:33:00,61.4,55.2,29.95,WNW,301,1.0,1.0,80,0.00,,,0.01,WeatherCatV1.15B25,2013-08-25 05:33:00,
2013-08-24 22:38:00,61.3,55.1,29.95,WNW,300,1.0,1.0,80,0.00,,,0.01,WeatherCatV1.15B25,2013-08-25 05:38:00,
2013-08-24 22:43:00,61.2,55.0,29.95,NNE,25,0.0,0.0,80,0.00,,,0.01,WeatherCatV1.15B25,2013-08-25 05:43:00,
2013-08-24 22:48:00,61.0,54.8,29.96,NNE,23,1.0,1.0,80,0.00,,,0.01,WeatherCatV1.15B25,2013-08-25 05:48:00,
2013-08-24 22:53:00,61.0,54.8,29.96,NNW,333,0.0,1.0,80,0.00,,,0.01,WeatherCatV1.15B25,2013-08-25 05:53:00,
2013-08-24 22:58:00,61.0,55.1,29.96,NNW,334,0.0,1.0,81,0.00,,,0.01,WeatherCatV1.15B25,2013-08-25 05:58:00,
2013-08-24 23:03:00,61.0,54.8,29.96,NNW,333,0.0,0.0,80,0.00,,,0.01,WeatherCatV1.15B25,2013-08-25 06:03:00,
2013-08-24 23:08:00,61.0,54.8,29.96,NNW,333,0.0,0.0,80,0.00,,,0.01,WeatherCatV1.15B25,2013-08-25 06:08:00,
2013-08-24 23:13:00,60.9,55.0,29.96,NNW,333,0.0,0.0,81,0.00,,,0.01,WeatherCatV1.15B25,2013-08-25 06:13:00,
2013-08-24 23:18:00,60.9,54.7,29.96,NNW,335,0.0,0.0,80,0.00,,,0.01,WeatherCatV1.15B25,2013-08-25 06:18:00,
2013-08-24 23:23:00,60.9,54.0,29.96,NNW,342,1.0,1.0,78,0.00,,,0.01,WeatherCatV1.15B25,2013-08-25 06:23:00,
2013-08-24 23:28:00,61.1,53.8,29.96,NNE,18,1.0,4.0,77,0.00,,,0.01,WeatherCatV1.15B25,2013-08-25 06:28:00,
2013-08-24 23:33:00,61.1,53.8,29.96,ENE,67,1.0,2.0,77,0.00,,,0.01,WeatherCatV1.15B25,2013-08-25 06:33:00,
2013-08-24 23:38:00,61.0,53.7,29.96,ENE,57,1.0,1.0,77,0.00,,,0.01,WeatherCatV1.15B25,2013-08-25 06:38:00,
2013-08-24 23:43:00,60.7,53.8,29.96,North,352,0.0,2.0,78,0.00,,,0.01,WeatherCatV1.15B25,2013-08-25 06:43:00,
2013-08-24 23:48:00,60.5,53.6,29.96,NNE,19,0.0,1.0,78,0.00,,,0.01,WeatherCatV1.15B25,2013-08-25 06:48:00,
2013-08-24 23:53:00,60.3,53.8,29.97,NNE,22,0.0,0.0,79,0.00,,,0.01,WeatherCatV1.15B25,2013-08-25 06:53:00,
2013-08-24 23:58:00,60.1,53.6,29.97,North,9,2.0,4.0,79,0.00,,,0.01,WeatherCatV1.15B25,2013-08-25 06:58:00,